sensor_id;sensor_type;location;lat;lon;timestamp;pressure;altitude;pressure_sealevel;temperature;humidity
45327;BME280;31062;49.678;24.560;2023-05-07T00:00:57;98058.94;;;10.81;64.42
45327;BME280;31062;49.678;24.560;2023-05-07T00:03:44;98200.81;;;11.71;64.37
45327;BME280;31062;49.678;24.560;2023-05-07T00:06:32;98096.78;;;10.95;64.46
45327;BME280;31062;49.678;24.560;2023-05-07T00:09:17;98203.31;;;11.67;64.60
45327;BME280;31062;49.678;24.560;2023-05-07T00:12:03;98079.66;;;10.80;64.24
45327;BME280;31062;49.678;24.560;2023-05-07T00:14:48;98196.25;;;11.57;64.13
45327;BME280;31062;49.678;24.560;2023-05-07T00:17:34;98105.09;;;10.95;64.48
45327;BME280;31062;49.678;24.560;2023-05-07T00:20:19;98238.53;;;11.74;64.83
45327;BME280;31062;49.678;24.560;2023-05-07T00:23:04;98109.13;;;10.85;65.30
45327;BME280;31062;49.678;24.560;2023-05-07T00:25:50;98235.59;;;11.72;65.59
45327;BME280;31062;49.678;24.560;2023-05-07T00:28:35;98087.66;;;10.66;65.36
45327;BME280;31062;49.678;24.560;2023-05-07T00:31:21;98221.13;;;11.55;65.55
45327;BME280;31062;49.678;24.560;2023-05-07T00:34:06;98203.72;;;11.44;65.82
45327;BME280;31062;49.678;24.560;2023-05-07T00:36:52;98208.53;;;11.44;65.71
45327;BME280;31062;49.678;24.560;2023-05-07T00:39:37;98111.91;;;10.75;65.94
45327;BME280;31062;49.678;24.560;2023-05-07T00:42:22;98211.91;;;11.42;65.81
45327;BME280;31062;49.678;24.560;2023-05-07T00:45:09;98044.69;;;10.29;65.51
45327;BME280;31062;49.678;24.560;2023-05-07T00:47:59;98269.06;;;11.65;65.87
45327;BME280;31062;49.678;24.560;2023-05-07T00:50:45;98077.13;;;10.55;65.64
45327;BME280;31062;49.678;24.560;2023-05-07T00:53:31;98052.59;;;10.42;65.53
45327;BME280;31062;49.678;24.560;2023-05-07T00:56:16;98051.13;;;10.41;65.52
45327;BME280;31062;49.678;24.560;2023-05-07T00:59:02;98257.22;;;11.64;65.92
45327;BME280;31062;49.678;24.560;2023-05-07T01:01:48;98268.75;;;11.51;65.54
45327;BME280;31062;49.678;24.560;2023-05-07T01:04:34;98254.28;;;11.62;65.77
45327;BME280;31062;49.678;24.560;2023-05-07T01:07:21;98025.63;;;10.06;65.65
45327;BME280;31062;49.678;24.560;2023-05-07T01:10:08;98091.88;;;10.57;65.32
45327;BME280;31062;49.678;24.560;2023-05-07T01:12:54;98072.44;;;10.48;65.10
45327;BME280;31062;49.678;24.560;2023-05-07T01:15:40;98214.22;;;11.46;65.11
45327;BME280;31062;49.678;24.560;2023-05-07T01:18:26;98193.19;;;11.24;65.03
45327;BME280;31062;49.678;24.560;2023-05-07T01:21:15;98071.72;;;10.47;64.83
45327;BME280;31062;49.678;24.560;2023-05-07T01:24:02;98064.44;;;10.52;65.11
45327;BME280;31062;49.678;24.560;2023-05-07T01:26:49;98096.44;;;10.72;64.90
45327;BME280;31062;49.678;24.560;2023-05-07T01:29:35;98202.97;;;11.44;64.90
45327;BME280;31062;49.678;24.560;2023-05-07T01:32:33;98053.44;;;10.35;65.04
45327;BME280;31062;49.678;24.560;2023-05-07T01:35:24;98277.97;;;11.63;65.11
45327;BME280;31062;49.678;24.560;2023-05-07T01:38:12;98051.50;;;10.18;64.93
45327;BME280;31062;49.678;24.560;2023-05-07T01:40:58;98239.22;;;11.46;65.25
45327;BME280;31062;49.678;24.560;2023-05-07T01:43:43;98087.00;;;10.39;65.73
45327;BME280;31062;49.678;24.560;2023-05-07T01:46:31;98246.06;;;11.45;65.93
45327;BME280;31062;49.678;24.560;2023-05-07T01:49:18;98250.16;;;11.44;65.60
45327;BME280;31062;49.678;24.560;2023-05-07T01:52:03;98284.66;;;11.41;65.79
45327;BME280;31062;49.678;24.560;2023-05-07T01:54:49;98268.00;;;11.41;65.63
45327;BME280;31062;49.678;24.560;2023-05-07T01:57:34;98244.31;;;11.40;65.45
45327;BME280;31062;49.678;24.560;2023-05-07T02:00:20;98122.34;;;10.57;65.41
45327;BME280;31062;49.678;24.560;2023-05-07T02:03:06;98207.75;;;11.15;64.85
45327;BME280;31062;49.678;24.560;2023-05-07T02:06:00;98121.63;;;10.57;64.11
45327;BME280;31062;49.678;24.560;2023-05-07T02:08:52;98245.50;;;11.37;64.22
45327;BME280;31062;49.678;24.560;2023-05-07T02:11:37;98082.16;;;10.30;63.84
45327;BME280;31062;49.678;24.560;2023-05-07T02:14:23;98194.44;;;11.03;63.86
45327;BME280;31062;49.678;24.560;2023-05-07T02:17:08;98238.75;;;11.30;63.53
45327;BME280;31062;49.678;24.560;2023-05-07T02:19:53;98225.56;;;11.12;63.30
45327;BME280;31062;49.678;24.560;2023-05-07T02:22:39;98212.72;;;11.07;63.33
45327;BME280;31062;49.678;24.560;2023-05-07T02:25:24;98242.56;;;11.25;63.36
45327;BME280;31062;49.678;24.560;2023-05-07T02:28:10;98044.91;;;9.87;63.13
45327;BME280;31062;49.678;24.560;2023-05-07T02:31:05;98237.97;;;11.11;63.02
45327;BME280;31062;49.678;24.560;2023-05-07T02:33:52;98231.13;;;11.12;62.67
45327;BME280;31062;49.678;24.560;2023-05-07T02:36:37;98269.69;;;11.27;62.80
45327;BME280;31062;49.678;24.560;2023-05-07T02:39:28;98252.47;;;11.19;62.43
45327;BME280;31062;49.678;24.560;2023-05-07T02:42:14;98105.00;;;10.20;62.74
45327;BME280;31062;49.678;24.560;2023-05-07T02:44:59;98274.22;;;11.22;62.46
45327;BME280;31062;49.678;24.560;2023-05-07T02:47:46;98280.66;;;11.25;61.22
45327;BME280;31062;49.678;24.560;2023-05-07T02:50:32;98252.75;;;11.23;62.05
45327;BME280;31062;49.678;24.560;2023-05-07T02:53:18;98091.50;;;10.07;61.08
45327;BME280;31062;49.678;24.560;2023-05-07T02:56:04;98119.81;;;10.15;61.15
45327;BME280;31062;49.678;24.560;2023-05-07T02:58:51;98203.56;;;10.77;61.15
45327;BME280;31062;49.678;24.560;2023-05-07T03:01:39;98279.19;;;11.14;61.21
45327;BME280;31062;49.678;24.560;2023-05-07T03:04:26;98263.97;;;11.15;60.31
45327;BME280;31062;49.678;24.560;2023-05-07T03:07:12;98085.72;;;9.86;60.32
45327;BME280;31062;49.678;24.560;2023-05-07T03:09:57;98126.19;;;10.08;59.81
45327;BME280;31062;49.678;24.560;2023-05-07T03:12:43;98092.41;;;9.83;60.36
45327;BME280;31062;49.678;24.560;2023-05-07T03:15:33;98315.91;;;11.05;59.45
45327;BME280;31062;49.678;24.560;2023-05-07T03:18:19;98095.84;;;9.74;58.91
45327;BME280;31062;49.678;24.560;2023-05-07T03:21:04;98284.78;;;10.97;59.68
45327;BME280;31062;49.678;24.560;2023-05-07T03:23:50;98146.41;;;10.01;59.94
45327;BME280;31062;49.678;24.560;2023-05-07T03:26:36;98133.22;;;9.82;59.95
45327;BME280;31062;49.678;24.560;2023-05-07T03:29:21;98273.19;;;10.81;60.02
45327;BME280;31062;49.678;24.560;2023-05-07T03:32:07;98143.56;;;9.82;59.62
45327;BME280;31062;49.678;24.560;2023-05-07T03:34:52;98263.31;;;10.61;59.07
45327;BME280;31062;49.678;24.560;2023-05-07T03:37:39;98135.41;;;9.67;59.22
45327;BME280;31062;49.678;24.560;2023-05-07T03:40:26;98259.44;;;10.47;59.47
45327;BME280;31062;49.678;24.560;2023-05-07T03:43:13;98086.47;;;9.25;59.37
45327;BME280;31062;49.678;24.560;2023-05-07T03:46:03;98281.09;;;10.58;58.62
45327;BME280;31062;49.678;24.560;2023-05-07T03:48:49;98158.03;;;9.73;58.00
45327;BME280;31062;49.678;24.560;2023-05-07T03:51:37;98311.63;;;10.68;58.14
45327;BME280;31062;49.678;24.560;2023-05-07T03:54:25;98226.72;;;10.01;57.19
45327;BME280;31062;49.678;24.560;2023-05-07T03:57:10;98336.84;;;10.62;57.37
45327;BME280;31062;49.678;24.560;2023-05-07T03:59:55;98120.97;;;9.24;57.58
45327;BME280;31062;49.678;24.560;2023-05-07T04:02:41;97977.16;;;8.21;58.06
45327;BME280;31062;49.678;24.560;2023-05-07T04:05:27;98316.34;;;10.48;58.08
45327;BME280;31062;49.678;24.560;2023-05-07T04:08:17;98214.06;;;9.81;58.21
45327;BME280;31062;49.678;24.560;2023-05-07T04:11:06;98231.16;;;9.87;58.30
45327;BME280;31062;49.678;24.560;2023-05-07T04:13:54;98329.53;;;10.57;58.11
45327;BME280;31062;49.678;24.560;2023-05-07T04:16:41;98166.19;;;9.36;58.54
45327;BME280;31062;49.678;24.560;2023-05-07T04:19:27;98362.78;;;10.57;58.17
45327;BME280;31062;49.678;24.560;2023-05-07T04:22:13;98307.31;;;10.30;58.39
45327;BME280;31062;49.678;24.560;2023-05-07T04:24:59;98218.94;;;9.73;58.37
45327;BME280;31062;49.678;24.560;2023-05-07T04:27:45;98160.03;;;9.28;58.60
45327;BME280;31062;49.678;24.560;2023-05-07T04:30:31;98189.50;;;9.51;57.59
45327;BME280;31062;49.678;24.560;2023-05-07T04:33:17;98351.38;;;10.53;57.95
45327;BME280;31062;49.678;24.560;2023-05-07T04:36:04;98294.16;;;10.13;57.72
45327;BME280;31062;49.678;24.560;2023-05-07T04:38:54;98088.72;;;8.68;57.29
45327;BME280;31062;49.678;24.560;2023-05-07T04:41:39;98269.94;;;9.87;56.66
45327;BME280;31062;49.678;24.560;2023-05-07T04:44:26;98178.25;;;9.31;57.57
45327;BME280;31062;49.678;24.560;2023-05-07T04:47:13;98350.56;;;10.43;57.57
45327;BME280;31062;49.678;24.560;2023-05-07T04:49:58;98277.19;;;9.82;56.85
45327;BME280;31062;49.678;24.560;2023-05-07T04:52:44;98156.91;;;9.07;57.15
45327;BME280;31062;49.678;24.560;2023-05-07T04:55:30;98330.84;;;10.04;56.45
45327;BME280;31062;49.678;24.560;2023-05-07T04:58:16;98331.34;;;10.28;56.54
45327;BME280;31062;49.678;24.560;2023-05-07T05:01:04;98340.81;;;10.25;56.77
45327;BME280;31062;49.678;24.560;2023-05-07T05:03:50;98344.00;;;10.21;57.15
45327;BME280;31062;49.678;24.560;2023-05-07T05:06:38;98316.81;;;10.02;57.53
45327;BME280;31062;49.678;24.560;2023-05-07T05:09:24;98381.06;;;10.26;57.34
45327;BME280;31062;49.678;24.560;2023-05-07T05:12:10;98357.28;;;10.22;57.33
45327;BME280;31062;49.678;24.560;2023-05-07T05:14:56;98397.91;;;10.20;56.83
45327;BME280;31062;49.678;24.560;2023-05-07T05:17:41;98398.34;;;10.16;56.63
45327;BME280;31062;49.678;24.560;2023-05-07T05:20:28;98323.34;;;9.80;57.06
45327;BME280;31062;49.678;24.560;2023-05-07T05:23:14;98379.91;;;10.11;57.70
45327;BME280;31062;49.678;24.560;2023-05-07T05:25:59;98171.16;;;8.79;57.08
45327;BME280;31062;49.678;24.560;2023-05-07T05:28:49;98207.47;;;9.00;57.68
45327;BME280;31062;49.678;24.560;2023-05-07T05:31:37;98274.19;;;9.29;57.32
45327;BME280;31062;49.678;24.560;2023-05-07T05:34:23;98278.06;;;9.26;57.22
45327;BME280;31062;49.678;24.560;2023-05-07T05:37:08;98362.78;;;10.05;58.39
45327;BME280;31062;49.678;24.560;2023-05-07T05:39:54;98317.72;;;9.70;58.43
45327;BME280;31062;49.678;24.560;2023-05-07T05:42:41;98294.00;;;9.60;58.71
45327;BME280;31062;49.678;24.560;2023-05-07T05:45:28;98355.94;;;10.06;59.12
45327;BME280;31062;49.678;24.560;2023-05-07T05:48:14;98311.59;;;9.72;59.20
45327;BME280;31062;49.678;24.560;2023-05-07T05:50:59;98396.44;;;10.19;59.44
45327;BME280;31062;49.678;24.560;2023-05-07T05:53:45;98198.00;;;9.11;58.53
45327;BME280;31062;49.678;24.560;2023-05-07T05:56:31;98315.03;;;9.97;59.23
45327;BME280;31062;49.678;24.560;2023-05-07T05:59:17;98202.03;;;9.34;59.56
45327;BME280;31062;49.678;24.560;2023-05-07T06:02:03;98379.41;;;10.57;59.26
45327;BME280;31062;49.678;24.560;2023-05-07T06:04:49;98373.44;;;10.78;57.89
45327;BME280;31062;49.678;24.560;2023-05-07T06:07:38;98159.19;;;9.35;57.14
45327;BME280;31062;49.678;24.560;2023-05-07T06:10:24;98330.34;;;10.50;56.62
45327;BME280;31062;49.678;24.560;2023-05-07T06:13:10;98360.66;;;10.65;57.00
45327;BME280;31062;49.678;24.560;2023-05-07T06:15:56;98345.50;;;10.49;57.45
45327;BME280;31062;49.678;24.560;2023-05-07T06:18:41;98326.31;;;10.16;57.86
45327;BME280;31062;49.678;24.560;2023-05-07T06:21:27;98365.88;;;10.44;57.63
45327;BME280;31062;49.678;24.560;2023-05-07T06:24:13;98371.13;;;10.40;58.03
45327;BME280;31062;49.678;24.560;2023-05-07T06:26:58;98378.13;;;10.41;58.35
45327;BME280;31062;49.678;24.560;2023-05-07T06:29:48;98382.03;;;10.38;58.30
45327;BME280;31062;49.678;24.560;2023-05-07T06:32:36;98384.06;;;10.37;58.66
45327;BME280;31062;49.678;24.560;2023-05-07T06:35:23;98204.59;;;9.15;58.98
45327;BME280;31062;49.678;24.560;2023-05-07T06:38:09;98196.91;;;9.06;59.73
45327;BME280;31062;49.678;24.560;2023-05-07T06:40:55;98388.00;;;10.34;59.95
45327;BME280;31062;49.678;24.560;2023-05-07T06:43:42;98281.81;;;9.63;60.17
45327;BME280;31062;49.678;24.560;2023-05-07T06:46:48;98234.31;;;9.32;60.77
45327;BME280;31062;49.678;24.560;2023-05-07T06:49:34;98355.84;;;10.14;60.51
45327;BME280;31062;49.678;24.560;2023-05-07T06:52:20;98405.78;;;10.48;60.19
45327;BME280;31062;49.678;24.560;2023-05-07T06:55:08;98323.53;;;9.99;60.42
45327;BME280;31062;49.678;24.560;2023-05-07T06:57:54;98351.94;;;10.00;60.39
45327;BME280;31062;49.678;24.560;2023-05-07T07:00:41;98368.34;;;10.22;60.73
45327;BME280;31062;49.678;24.560;2023-05-07T07:03:26;98434.84;;;10.57;61.55
45327;BME280;31062;49.678;24.560;2023-05-07T07:06:14;98417.84;;;10.60;61.86
45327;BME280;31062;49.678;24.560;2023-05-07T07:09:00;98410.41;;;10.63;61.37
45327;BME280;31062;49.678;24.560;2023-05-07T07:11:47;98422.97;;;10.64;61.52
45327;BME280;31062;49.678;24.560;2023-05-07T07:14:33;98342.94;;;10.16;61.22
45327;BME280;31062;49.678;24.560;2023-05-07T07:17:18;98397.84;;;10.28;60.93
45327;BME280;31062;49.678;24.560;2023-05-07T07:20:04;98295.16;;;9.74;61.05
45327;BME280;31062;49.678;24.560;2023-05-07T07:22:49;98365.03;;;10.24;62.00
45327;BME280;31062;49.678;24.560;2023-05-07T07:25:36;98152.25;;;8.50;62.76
45327;BME280;31062;49.678;24.560;2023-05-07T07:28:22;98414.97;;;10.51;62.76
45327;BME280;31062;49.678;24.560;2023-05-07T07:31:07;98371.31;;;10.25;62.92
45327;BME280;31062;49.678;24.560;2023-05-07T07:33:53;98375.38;;;10.23;62.36
45327;BME280;31062;49.678;24.560;2023-05-07T07:36:38;98360.22;;;10.25;62.43
45327;BME280;31062;49.678;24.560;2023-05-07T07:39:39;98259.47;;;9.61;62.17
45327;BME280;31062;49.678;24.560;2023-05-07T07:42:29;98331.50;;;10.12;62.62
45327;BME280;31062;49.678;24.560;2023-05-07T07:45:16;98335.56;;;10.11;63.11
45327;BME280;31062;49.678;24.560;2023-05-07T07:48:05;98231.97;;;9.46;62.07
45327;BME280;31062;49.678;24.560;2023-05-07T07:50:54;98385.03;;;10.49;62.18
45327;BME280;31062;49.678;24.560;2023-05-07T07:53:40;98400.94;;;10.66;62.10
45327;BME280;31062;49.678;24.560;2023-05-07T07:56:26;98451.16;;;10.87;62.76
45327;BME280;31062;49.678;24.560;2023-05-07T07:59:12;98432.22;;;10.93;62.35
45327;BME280;31062;49.678;24.560;2023-05-07T08:02:00;98433.69;;;10.94;61.92
45327;BME280;31062;49.678;24.560;2023-05-07T08:04:50;98351.41;;;10.36;62.13
45327;BME280;31062;49.678;24.560;2023-05-07T08:07:37;98438.50;;;10.94;62.35
45327;BME280;31062;49.678;24.560;2023-05-07T08:10:23;98392.22;;;10.70;62.65
45327;BME280;31062;49.678;24.560;2023-05-07T08:13:14;98360.03;;;10.40;62.70
45327;BME280;31062;49.678;24.560;2023-05-07T08:16:00;98434.34;;;10.85;63.21
45327;BME280;31062;49.678;24.560;2023-05-07T08:18:47;98256.72;;;9.61;63.19
45327;BME280;31062;49.678;24.560;2023-05-07T08:21:34;98243.78;;;9.46;63.27
45327;BME280;31062;49.678;24.560;2023-05-07T08:24:20;98246.13;;;9.50;63.13
45327;BME280;31062;49.678;24.560;2023-05-07T08:27:06;98239.94;;;9.41;63.43
45327;BME280;31062;49.678;24.560;2023-05-07T08:29:52;98424.75;;;10.69;64.55
45327;BME280;31062;49.678;24.560;2023-05-07T08:32:40;98252.47;;;9.42;64.26
45327;BME280;31062;49.678;24.560;2023-05-07T08:35:26;98414.56;;;10.54;64.90
45327;BME280;31062;49.678;24.560;2023-05-07T08:38:13;98262.00;;;9.49;65.05
45327;BME280;31062;49.678;24.560;2023-05-07T08:40:58;98448.16;;;10.76;65.20
45327;BME280;31062;49.678;24.560;2023-05-07T08:43:48;98451.66;;;10.76;65.95
45327;BME280;31062;49.678;24.560;2023-05-07T08:46:39;98261.91;;;9.39;65.93
45327;BME280;31062;49.678;24.560;2023-05-07T08:49:25;98436.47;;;10.43;66.34
45327;BME280;31062;49.678;24.560;2023-05-07T08:52:12;98450.50;;;10.79;66.92
45327;BME280;31062;49.678;24.560;2023-05-07T08:54:58;98335.72;;;9.96;67.34
45327;BME280;31062;49.678;24.560;2023-05-07T08:57:44;98273.31;;;9.61;67.60
45327;BME280;31062;49.678;24.560;2023-05-07T09:00:30;98265.25;;;9.55;67.65
45327;BME280;31062;49.678;24.560;2023-05-07T09:03:18;98266.56;;;9.54;67.50
45327;BME280;31062;49.678;24.560;2023-05-07T09:06:07;98288.00;;;9.71;67.31
45327;BME280;31062;49.678;24.560;2023-05-07T09:08:54;98493.97;;;10.94;68.24
45327;BME280;31062;49.678;24.560;2023-05-07T09:11:43;98282.91;;;9.60;68.38
45327;BME280;31062;49.678;24.560;2023-05-07T09:14:31;98435.50;;;10.65;68.20
45327;BME280;31062;49.678;24.560;2023-05-07T09:17:18;98495.44;;;10.95;68.01
45327;BME280;31062;49.678;24.560;2023-05-07T09:20:05;98466.25;;;10.94;67.93
45327;BME280;31062;49.678;24.560;2023-05-07T09:22:56;98345.00;;;10.08;68.09
45327;BME280;31062;49.678;24.560;2023-05-07T09:25:42;98454.75;;;10.63;68.68
45327;BME280;31062;49.678;24.560;2023-05-07T09:28:34;98466.31;;;10.86;68.62
45327;BME280;31062;49.678;24.560;2023-05-07T09:31:21;98475.84;;;10.93;68.28
45327;BME280;31062;49.678;24.560;2023-05-07T09:34:11;98481.09;;;10.89;68.12
45327;BME280;31062;49.678;24.560;2023-05-07T09:37:05;98383.16;;;10.00;67.64
45327;BME280;31062;49.678;24.560;2023-05-07T09:39:52;98492.91;;;10.89;67.72
45327;BME280;31062;49.678;24.560;2023-05-07T09:42:41;98305.06;;;9.60;68.12
45327;BME280;31062;49.678;24.560;2023-05-07T09:45:27;98405.75;;;10.31;67.77
45327;BME280;31062;49.678;24.560;2023-05-07T09:48:17;98461.44;;;10.60;68.17
45327;BME280;31062;49.678;24.560;2023-05-07T09:51:15;98498.53;;;10.82;67.80
45327;BME280;31062;49.678;24.560;2023-05-07T09:54:04;98340.81;;;9.65;67.81
45327;BME280;31062;49.678;24.560;2023-05-07T09:56:52;98298.66;;;9.32;68.18
45327;BME280;31062;49.678;24.560;2023-05-07T09:59:43;98491.78;;;10.58;69.13
45327;BME280;31062;49.678;24.560;2023-05-07T10:02:35;98483.13;;;10.54;69.20
45327;BME280;31062;49.678;24.560;2023-05-07T10:05:22;98472.69;;;10.45;69.61
45327;BME280;31062;49.678;24.560;2023-05-07T10:08:11;98523.97;;;10.53;70.17
45327;BME280;31062;49.678;24.560;2023-05-07T10:10:59;98496.59;;;10.57;69.93
45327;BME280;31062;49.678;24.560;2023-05-07T10:13:47;98473.97;;;10.44;70.31
45327;BME280;31062;49.678;24.560;2023-05-07T10:16:35;98291.44;;;9.12;69.88
45327;BME280;31062;49.678;24.560;2023-05-07T10:19:28;98531.06;;;10.47;69.89
45327;BME280;31062;49.678;24.560;2023-05-07T10:22:16;98409.34;;;9.82;70.22
45327;BME280;31062;49.678;24.560;2023-05-07T10:25:12;98311.75;;;9.07;69.85
45327;BME280;31062;49.678;24.560;2023-05-07T10:28:06;98514.56;;;10.32;70.60
45327;BME280;31062;49.678;24.560;2023-05-07T10:31:04;98349.63;;;9.29;70.88
45327;BME280;31062;49.678;24.560;2023-05-07T10:33:59;98333.09;;;9.14;70.97
45327;BME280;31062;49.678;24.560;2023-05-07T10:36:46;98457.75;;;9.98;71.24
45327;BME280;31062;49.678;24.560;2023-05-07T10:39:32;98508.50;;;10.26;71.37
45327;BME280;31062;49.678;24.560;2023-05-07T10:42:18;98446.47;;;9.79;70.93
45327;BME280;31062;49.678;24.560;2023-05-07T10:45:15;98444.47;;;9.72;71.12
45327;BME280;31062;49.678;24.560;2023-05-07T10:48:12;98520.91;;;10.25;70.94
45327;BME280;31062;49.678;24.560;2023-05-07T10:51:21;98493.53;;;9.79;71.26
45327;BME280;31062;49.678;24.560;2023-05-07T10:57:35;98520.44;;;10.36;71.39
45327;BME280;31062;49.678;24.560;2023-05-07T11:00:44;98518.19;;;10.42;71.72
45327;BME280;31062;49.678;24.560;2023-05-07T11:04:14;98527.00;;;10.48;70.84
45327;BME280;31062;49.678;24.560;2023-05-07T11:10:04;98389.84;;;9.48;70.72
45327;BME280;31062;49.678;24.560;2023-05-07T11:13:07;98541.34;;;10.54;70.64
45327;BME280;31062;49.678;24.560;2023-05-07T11:16:03;98492.84;;;10.20;70.67
45327;BME280;31062;49.678;24.560;2023-05-07T11:18:56;98427.19;;;9.64;70.56
45327;BME280;31062;49.678;24.560;2023-05-07T11:21:49;98532.03;;;10.42;70.84
45327;BME280;31062;49.678;24.560;2023-05-07T11:24:42;98562.53;;;10.42;71.61
45327;BME280;31062;49.678;24.560;2023-05-07T11:27:30;98547.69;;;10.47;71.29
45327;BME280;31062;49.678;24.560;2023-05-07T11:30:19;98473.53;;;9.88;71.16
45327;BME280;31062;49.678;24.560;2023-05-07T11:33:05;98516.16;;;10.17;71.72
45327;BME280;31062;49.678;24.560;2023-05-07T11:35:54;98354.72;;;9.08;71.02
45327;BME280;31062;49.678;24.560;2023-05-07T11:38:44;98555.03;;;10.52;71.23
45327;BME280;31062;49.678;24.560;2023-05-07T11:41:34;98193.38;;;7.99;70.67
45327;BME280;31062;49.678;24.560;2023-05-07T11:44:20;98403.69;;;9.48;71.44
45327;BME280;31062;49.678;24.560;2023-05-07T11:47:05;98562.78;;;10.53;71.25
45327;BME280;31062;49.678;24.560;2023-05-07T11:49:52;98524.97;;;10.23;70.80
45327;BME280;31062;49.678;24.560;2023-05-07T11:52:39;98563.59;;;10.46;71.43
45327;BME280;31062;49.678;24.560;2023-05-07T11:55:25;98562.84;;;10.46;71.84
45327;BME280;31062;49.678;24.560;2023-05-07T11:58:12;98485.41;;;9.81;71.72
45327;BME280;31062;49.678;24.560;2023-05-07T12:01:08;98378.88;;;9.08;72.27
45327;BME280;31062;49.678;24.560;2023-05-07T12:03:54;98575.94;;;10.28;71.88
45327;BME280;31062;49.678;24.560;2023-05-07T12:06:40;98472.50;;;9.76;71.99
45327;BME280;31062;49.678;24.560;2023-05-07T12:09:27;98584.22;;;10.53;71.88
45327;BME280;31062;49.678;24.560;2023-05-07T12:12:14;98539.97;;;10.20;71.29
45327;BME280;31062;49.678;24.560;2023-05-07T12:15:03;98521.50;;;10.15;71.73
45327;BME280;31062;49.678;24.560;2023-05-07T12:17:49;98552.88;;;10.43;71.69
45327;BME280;31062;49.678;24.560;2023-05-07T12:20:36;98584.38;;;10.55;71.93
45327;BME280;31062;49.678;24.560;2023-05-07T12:23:23;98386.19;;;9.20;71.67
45327;BME280;31062;49.678;24.560;2023-05-07T12:26:08;98412.94;;;9.42;71.42
45327;BME280;31062;49.678;24.560;2023-05-07T12:28:54;98514.75;;;10.01;71.93
45327;BME280;31062;49.678;24.560;2023-05-07T12:31:41;98570.13;;;10.09;72.04
45327;BME280;31062;49.678;24.560;2023-05-07T12:34:27;98602.66;;;10.58;71.76
45327;BME280;31062;49.678;24.560;2023-05-07T12:37:13;98593.16;;;10.44;71.50
45327;BME280;31062;49.678;24.560;2023-05-07T12:40:09;98390.75;;;9.25;71.66
45327;BME280;31062;49.678;24.560;2023-05-07T12:42:55;98613.25;;;10.52;72.07
45327;BME280;31062;49.678;24.560;2023-05-07T12:45:43;98588.81;;;10.58;72.07
45327;BME280;31062;49.678;24.560;2023-05-07T12:48:29;98436.47;;;9.59;71.55
45327;BME280;31062;49.678;24.560;2023-05-07T12:51:15;98521.31;;;10.13;71.93
45327;BME280;31062;49.678;24.560;2023-05-07T12:54:01;98366.75;;;9.03;72.19
45327;BME280;31062;49.678;24.560;2023-05-07T12:56:46;98569.38;;;10.41;71.94
45327;BME280;31062;49.678;24.560;2023-05-07T13:02:17;98597.53;;;10.54;72.19
45327;BME280;31062;49.678;24.560;2023-05-07T13:05:03;98422.22;;;9.37;72.64
45327;BME280;31062;49.678;24.560;2023-05-07T13:07:56;98403.28;;;9.26;72.33
45327;BME280;31062;49.678;24.560;2023-05-07T13:10:42;98597.13;;;10.58;72.69
45327;BME280;31062;49.678;24.560;2023-05-07T13:13:28;98601.50;;;10.61;72.70
45327;BME280;31062;49.678;24.560;2023-05-07T13:16:16;98597.13;;;10.58;72.29
45327;BME280;31062;49.678;24.560;2023-05-07T13:19:06;98470.00;;;9.63;72.39
45327;BME280;31062;49.678;24.560;2023-05-07T13:21:51;98405.31;;;9.26;72.33
45327;BME280;31062;49.678;24.560;2023-05-07T13:24:36;98364.56;;;8.94;72.52
45327;BME280;31062;49.678;24.560;2023-05-07T13:27:22;98596.78;;;10.54;72.35
45327;BME280;31062;49.678;24.560;2023-05-07T13:30:07;98627.28;;;10.54;72.84
45327;BME280;31062;49.678;24.560;2023-05-07T13:32:55;98586.13;;;10.43;72.59
45327;BME280;31062;49.678;24.560;2023-05-07T13:35:41;98595.31;;;10.53;72.62
45327;BME280;31062;49.678;24.560;2023-05-07T13:38:30;98603.78;;;10.55;72.59
45327;BME280;31062;49.678;24.560;2023-05-07T13:41:18;98599.72;;;10.56;73.12
45327;BME280;31062;49.678;24.560;2023-05-07T13:44:04;98550.66;;;10.24;72.69
45327;BME280;31062;49.678;24.560;2023-05-07T13:46:49;98373.56;;;9.02;72.81
45327;BME280;31062;49.678;24.560;2023-05-07T13:49:35;98404.25;;;9.21;72.90
45327;BME280;31062;49.678;24.560;2023-05-07T13:52:20;98439.50;;;9.46;72.74
45327;BME280;31062;49.678;24.560;2023-05-07T13:55:07;98430.69;;;9.39;72.88
45327;BME280;31062;49.678;24.560;2023-05-07T13:57:57;98549.41;;;10.17;73.37
45327;BME280;31062;49.678;24.560;2023-05-07T14:00:43;98498.91;;;9.77;73.41
45327;BME280;31062;49.678;24.560;2023-05-07T14:03:28;98603.44;;;10.51;73.66
45327;BME280;31062;49.678;24.560;2023-05-07T14:06:17;98587.75;;;10.29;73.76
45327;BME280;31062;49.678;24.560;2023-05-07T14:09:03;98577.00;;;10.33;73.64
45327;BME280;31062;49.678;24.560;2023-05-07T14:11:49;98605.66;;;10.52;73.93
45327;BME280;31062;49.678;24.560;2023-05-07T14:14:36;98601.97;;;10.50;73.91
45327;BME280;31062;49.678;24.560;2023-05-07T14:17:22;98464.66;;;9.65;73.45
45327;BME280;31062;49.678;24.560;2023-05-07T14:20:11;98564.44;;;10.32;73.98
45327;BME280;31062;49.678;24.560;2023-05-07T14:22:57;98634.16;;;10.70;73.68
45327;BME280;31062;49.678;24.560;2023-05-07T14:25:43;98462.56;;;9.73;73.56
45327;BME280;31062;49.678;24.560;2023-05-07T14:28:28;98413.72;;;9.35;73.44
45327;BME280;31062;49.678;24.560;2023-05-07T14:31:14;98595.97;;;10.61;73.48
45327;BME280;31062;49.678;24.560;2023-05-07T14:34:00;98457.47;;;9.62;73.30
45327;BME280;31062;49.678;24.560;2023-05-07T14:36:47;98452.50;;;9.60;73.54
45327;BME280;31062;49.678;24.560;2023-05-07T14:39:33;98138.78;;;7.42;73.10
45327;BME280;31062;49.678;24.560;2023-05-07T14:42:18;98416.66;;;9.37;73.29
45327;BME280;31062;49.678;24.560;2023-05-07T14:45:05;98427.41;;;9.33;73.41
45327;BME280;31062;49.678;24.560;2023-05-07T14:47:51;98604.88;;;10.59;74.45